Flight Track Log - Related Links

Times and Time Zones

All times are in EST time to prevent confusion due to time zone crossing. See the N625W flight status page for this flight to view local times or setup timezone preferences in your user account.

Time Position Orientation Groundspeed Altitude Reporting Facility
EST Latitude Longitude Course Direction KTS MPH feet Rate Location/Type
Sun 12:34:29 PM 40.8256 -96.7444 236° Southwest 170 196 1,800  Level Minneapolis Center
Sun 12:34:54 PM 40.8197 -96.7558 236° Southwest 183 211 2,600 2,270 Climbing Minneapolis Center
Sun 12:35:06 PM 40.7928 -96.7589 185° South 199 229 3,200 2,164 Climbing Minneapolis Center
Sun 12:35:55 PM 40.7731 -96.8008 238° Southwest 208 239 4,800 2,162 Climbing Minneapolis Center
Sun 12:36:57 PM 40.7300 -96.8694 230° Southwest 233 268 7,200 2,488 Climbing Minneapolis Center
Sun 12:37:58 PM 40.6842 -96.9425 230° Southwest 253 291 9,900 2,146 Climbing Minneapolis Center
Sun 12:39:00 PM 40.6333 -97.0208 229° Southwest 272 313 11,600 2,195 Climbing Minneapolis Center
Sun 12:40:01 PM 40.6031 -97.1444 252° West 292 336 14,400 2,537 Climbing Minneapolis Center
Sun 12:41:03 PM 40.5747 -97.2394 249° West 285 328 16,800 2,390 Climbing Minneapolis Center
Sun 12:42:04 PM 40.5486 -97.3333 250° West 276 318 19,300 1,805 Climbing Minneapolis Center
Sun 12:43:06 PM 40.5214 -97.4297 250° West 283 326 20,500 1,645 Climbing Minneapolis Center
Sun 12:44:08 PM 40.4894 -97.5333 248° West 297 342 22,700 1,805 Climbing Minneapolis Center
Sun 12:45:09 PM 40.4603 -97.6325 249° West 295 339 24,200 1,366 Climbing Minneapolis Center
Sun 12:46:11 PM 40.4239 -97.7303 244° Southwest 296 341 25,500 1,268 Climbing Minneapolis Center
Sun 12:47:12 PM 40.3603 -97.8367 232° Southwest 306 352 26,800 1,317 Climbing Minneapolis Center
Sun 12:48:14 PM 40.3072 -97.9261 232° Southwest 307 353 28,200 1,113 Climbing Minneapolis Center
Sun 12:49:16 PM 40.2542 -98.0156 232° Southwest 309 356 29,100 878 Climbing Minneapolis Center
Sun 12:50:17 PM 40.2003 -98.1050 232° Southwest 310 357 30,000 829 Climbing Minneapolis Center
Sun 12:51:19 PM 40.1669 -98.2094 247° West 314 361 30,800 823 Climbing Minneapolis Center
Sun 12:52:21 PM 40.1361 -98.3147 249° West 310 357 31,700 829 Climbing Minneapolis Center
Sun 12:53:22 PM 40.1053 -98.4186 249° West 308 354 32,500 780 Climbing Minneapolis Center
Sun 12:54:24 PM 40.0747 -98.5228 249° West 307 353 33,300 774 Climbing Minneapolis Center
Sun 12:55:26 PM 40.0447 -98.6253 249° West 305 351 34,100 829 Climbing Minneapolis Center
Sun 12:56:27 PM 40.0081 -98.7456 248° West 299 344 35,000 829 Climbing Minneapolis Center
Sun 12:57:29 PM 39.9783 -98.8439 249° West 293 337 35,800 774 Climbing Minneapolis Center
Sun 12:58:31 PM 39.9492 -98.9428 249° West 291 335 36,600 780 Climbing Minneapolis Center
Sun 12:59:32 PM 39.9206 -99.0406 249° West 290 334 37,400 672 Climbing Minneapolis Center
Sun 01:00:36 PM 39.8908 -99.1356 248° West 283 326 38,000 261 Climbing Denver Center
Sun 01:01:50 PM 39.8606 -99.2322 248° West 286 329 38,000  Level Denver Center
Sun 01:02:53 PM 39.8247 -99.3564 249° West 303 349 38,000  Level Denver Center
Sun 01:03:55 PM 39.7850 -99.4825 248° West 313 360 38,000  Level Denver Center
Sun 01:04:57 PM 39.7519 -99.5914 248° West 322 371 38,000  Level Denver Center
Sun 01:05:59 PM 39.7194 -99.6978 248° West 318 366 38,000  Level Denver Center
Sun 01:07:13 PM 39.6858 -99.8067 248° West 321 369 38,000  Level Denver Center
Sun 01:08:16 PM 39.6444 -99.9369 248° West 325 374 38,000  Level Denver Center
Sun 01:09:18 PM 39.6089 -100.0497 248° West 324 373 38,000  Level Denver Center
Sun 01:10:20 PM 39.5717 -100.1697 248° West 320 368 38,000  Level Denver Center
Sun 01:11:22 PM 39.5400 -100.2689 248° West 314 361 38,000  Level Denver Center
Sun 01:12:24 PM 39.5033 -100.3853 248° West 313 360 38,000  Level Denver Center
Sun 01:13:26 PM 39.4717 -100.4825 247° West 307 353 38,000  Level Denver Center
Sun 01:14:28 PM 39.4347 -100.5967 247° West 308 354 38,000  Level Denver Center
Sun 01:15:30 PM 39.4033 -100.6942 247° West 308 354 38,000  Level Denver Center
Sun 01:16:32 PM 39.3681 -100.8078 248° West 306 352 38,000  Level Denver Center
Sun 01:17:34 PM 39.3364 -100.9047 247° West 306 352 38,000  Level Denver Center
Sun 01:18:36 PM 39.2994 -101.0164 247° West 303 349 38,000  Level Denver Center
Sun 01:19:39 PM 39.2686 -101.1158 248° West 308 354 38,000  Level Denver Center
Sun 01:20:41 PM 39.2367 -101.2122 247° West 305 351 38,000  Level Denver Center
Sun 01:21:43 PM 39.2000 -101.3261 247° West 306 352 38,000  Level Denver Center
Sun 01:22:45 PM 39.1681 -101.4231 247° West 307 353 38,000  Level Denver Center
Sun 01:23:47 PM 39.1311 -101.5353 247° West 305 351 38,000  Level Denver Center
Sun 01:24:49 PM 39.0989 -101.6297 246° West 303 349 38,000  Level Denver Center
Sun 01:25:51 PM 39.0622 -101.7392 247° West 301 346 38,000  Level Denver Center
Sun 01:26:53 PM 39.0303 -101.8331 246° West 301 346 38,000  Level Denver Center
Sun 01:27:55 PM 38.9922 -101.9456 247° West 307 353 38,000  Level Denver Center
Sun 01:28:57 PM 38.9597 -102.0444 247° West 314 361 38,000  Level Denver Center
Sun 01:29:59 PM 38.9208 -102.1583 246° West 313 360 38,000  Level Denver Center
Sun 01:31:01 PM 38.8872 -102.2572 246° West 315 362 38,000  Level Denver Center
Sun 01:32:03 PM 38.8481 -102.3731 247° West 316 364 38,000  Level Denver Center
Sun 01:33:05 PM 38.8139 -102.4728 246° West 319 367 38,000  Level Denver Center
Sun 01:34:07 PM 38.7756 -102.5886 247° West 317 365 38,000  Level Denver Center
Sun 01:35:09 PM 38.7422 -102.6881 247° West 317 365 38,000  Level Denver Center
Sun 01:36:11 PM 38.7039 -102.7989 246° West 322 371 38,000  Level Denver Center
Sun 01:37:13 PM 38.6681 -102.9047 247° West 324 373 38,000  Level Denver Center
Sun 01:38:15 PM 38.6342 -103.0103 248° West 321 369 38,000  Level Denver Center
Sun 01:39:17 PM 38.5986 -103.1119 246° West 314 361 38,000  Level Denver Center
Sun 01:40:19 PM 38.5542 -103.2381 246° West 322 371 38,000  Level Denver Center
Sun 01:41:21 PM 38.5189 -103.3400 246° West 328 377 38,000  Level Denver Center
Sun 01:42:23 PM 38.4806 -103.4547 247° West 330 380 38,000  Level Denver Center
Sun 01:43:25 PM 38.4464 -103.5550 247° West 326 375 38,000  Level Denver Center
Sun 01:44:27 PM 38.4047 -103.6736 246° West 328 377 38,000  Level Denver Center
Sun 01:45:29 PM 38.3683 -103.7750 245° Southwest 328 377 38,000  Level Denver Center
Sun 01:46:31 PM 38.3256 -103.8989 246° West 340 391 38,000  Level Denver Center
Sun 01:47:33 PM 38.2889 -104.0039 246° West 342 394 38,000  Level Denver Center
Sun 01:48:35 PM 38.2456 -104.1269 246° West 341 392 38,000  Level Denver Center
Sun 01:49:49 PM 38.2072 -104.2336 245° Southwest 346 398 38,000  Level Denver Center
Sun 01:50:52 PM 38.1572 -104.3772 246° West 349 402 38,000  Level Denver Center
Sun 01:51:54 PM 38.1175 -104.4839 245° Southwest 350 403 38,000  Level Denver Center
Sun 01:52:55 PM 38.0731 -104.6122 246° West 355 409 38,000  Level Denver Center
Sun 01:53:57 PM 38.0333 -104.7231 246° West 360 414 38,000  Level Denver Center
Sun 01:54:59 PM 37.9875 -104.8528 246° West 361 415 38,000  Level Denver Center
Sun 01:56:01 PM 37.9528 -104.9464 245° Southwest 365 420 38,000  Level Denver Center
Sun 01:57:03 PM 37.8981 -105.0975 245° Southwest 369 425 38,000 194 Level Denver Center
Sun 01:58:05 PM 37.8561 -105.2117 245° Southwest 373 429 38,400 480 Climbing Denver Center
Sun 01:59:08 PM 37.8075 -105.3447 245° Southwest 373 429 39,000 532 Climbing Denver Center
Sun 02:00:09 PM 37.7661 -105.4539 244° Southwest 362 417 39,500 488 Climbing Denver Center
Sun 02:01:11 PM 37.7175 -105.5822 244° Southwest 364 419 40,000 242 Climbing Denver Center
Sun 02:02:13 PM 37.6772 -105.6925 245° Southwest 362 417 40,000  Level Denver Center
Sun 02:03:15 PM 37.6283 -105.8208 244° Southwest 363 418 40,000  Level Denver Center
Sun 02:04:17 PM 37.5878 -105.9303 245° Southwest 361 415 40,000  Level Denver Center
Sun 02:05:19 PM 37.5439 -106.0519 246° West 360 414 40,000  Level Denver Center
Sun 02:06:20 PM 37.5108 -106.1425 245° Southwest 357 411 40,000  Level Denver Center
Sun 02:07:22 PM 37.4683 -106.2483 243° Southwest 355 409 40,000  Level Denver Center
Sun 02:08:25 PM 37.4131 -106.3933 244° Southwest 360 414 40,000  Level Denver Center
Sun 02:09:27 PM 37.3650 -106.5219 245° Southwest 362 417 40,000  Level Denver Center
Sun 02:10:28 PM 37.3228 -106.6317 244° Southwest 365 420 40,000  Level Denver Center
Sun 02:11:30 PM 37.2739 -106.7611 245° Southwest 368 423 40,000  Level Denver Center
Sun 02:12:32 PM 37.2306 -106.8717 244° Southwest 367 422 40,000  Level Denver Center
Sun 02:13:34 PM 37.1886 -106.9825 245° Southwest 367 422 40,000  Level Denver Center
Sun 02:14:36 PM 37.1392 -107.1086 244° Southwest 363 418 40,000  Level Denver Center
Sun 02:15:38 PM 37.1033 -107.1997 244° Southwest 364 419 40,000  Level Denver Center
Sun 02:16:52 PM 37.0467 -107.3444 244° Southwest 362 417 40,000  Level Denver Center
Sun 02:17:54 PM 36.9900 -107.4889 244° Southwest 363 418 40,000  Level Denver Center
Sun 02:18:56 PM 36.9478 -107.5972 244° Southwest 363 418 40,000  Level Denver Center
Sun 02:19:58 PM 36.9039 -107.7069 243° Southwest 366 421 40,000  Level Denver Center
Sun 02:21:00 PM 36.8544 -107.8328 244° Southwest 362 417 40,000  Level Denver Center
Sun 02:22:02 PM 36.8103 -107.9422 243° Southwest 367 422 40,000  Level Denver Center
Sun 02:23:04 PM 36.7597 -108.0697 244° Southwest 367 422 40,000  Level Denver Center
Sun 02:24:18 PM 36.7142 -108.1797 243° Southwest 371 427 40,000  Level Denver Center
Sun 02:25:20 PM 36.6506 -108.3269 242° Southwest 379 436 40,000  Level Denver Center
Sun 02:26:22 PM 36.5939 -108.4586 242° Southwest 386 444 40,000  Level Denver Center
Sun 02:27:24 PM 36.5447 -108.5733 242° Southwest 392 451 40,000  Level Denver Center
Sun 02:28:26 PM 36.4958 -108.6872 242° Southwest 393 452 40,000  Level Denver Center
Sun 02:29:28 PM 36.4383 -108.8219 242° Southwest 396 456 40,000  Level Denver Center
Sun 02:30:30 PM 36.3883 -108.9358 241° Southwest 395 455 40,000  Level Denver Center
Sun 02:31:32 PM 36.3308 -109.0661 241° Southwest 391 450 40,000  Level Denver Center
Sun 02:32:33 PM 36.2822 -109.1783 242° Southwest 389 448 40,000  Level Denver Center
Sun 02:33:35 PM 36.2247 -109.3086 241° Southwest 389 448 40,000  Level Denver Center
Sun 02:34:37 PM 36.1756 -109.4197 241° Southwest 387 445 40,000 48 Level Denver Center
Sun 02:35:39 PM 36.1186 -109.5500 242° Southwest 385 443 40,100 48 Climbing Denver Center
Sun 02:36:41 PM 36.0700 -109.6603 241° Southwest 383 441 40,100  Level Denver Center
Sun 02:37:43 PM 36.0133 -109.7833 240° Southwest 374 430 40,100  Level Denver Center
Sun 02:38:44 PM 35.9703 -109.8819 242° Southwest 346 398 40,100 -780 Level Denver Center
Sun 02:39:46 PM 35.9197 -109.9981 242° Southwest 345 397 38,500 -1,790 Descending Denver Center
Sun 02:40:48 PM 35.8653 -110.1125 240° Southwest 364 419 36,400 -1,721 Descending Denver Center
Sun 02:42:02 PM 35.8167 -110.2194 241° Southwest 362 417 34,600 -1,043 Descending Denver Center
Sun 02:43:06 PM 35.7597 -110.3406 240° Southwest 317 365 34,000 -286 Descending Albuquerque Center
Sun 02:44:08 PM 35.7197 -110.4347 242° Southwest 319 367 34,000  Level Albuquerque Center
Sun 02:45:10 PM 35.6697 -110.5344 238° Southwest 346 398 34,000  Level Albuquerque Center
Sun 02:46:12 PM 35.6139 -110.6606 241° Southwest 370 426 34,000 -339 Level Albuquerque Center
Sun 02:47:14 PM 35.5675 -110.7636 241° Southwest 365 420 33,300 -968 Descending Albuquerque Center
Sun 02:48:16 PM 35.5144 -110.8792 241° Southwest 352 405 32,000 -1,210 Descending Albuquerque Center
Sun 02:49:18 PM 35.4683 -110.9761 240° Southwest 346 398 30,800 -1,161 Descending Albuquerque Center
Sun 02:50:20 PM 35.4175 -111.0872 241° Southwest 336 387 29,600 -1,161 Descending Albuquerque Center
Sun 02:51:22 PM 35.3717 -111.1842 240° Southwest 341 392 28,400 -1,210 Descending Albuquerque Center
Sun 02:52:24 PM 35.3161 -111.3050 241° Southwest 358 412 27,100 -1,210 Descending Albuquerque Center
Sun 02:53:26 PM 35.2711 -111.4083 242° Southwest 373 429 25,900 -1,210 Descending Albuquerque Center
Sun 02:54:28 PM 35.2189 -111.5189 240° Southwest 377 434 24,600 -1,306 Descending Albuquerque Center
Sun 02:55:30 PM 35.1522 -111.6275 233° Southwest 398 458 23,200 -1,597 Descending Albuquerque Center
Sun 02:56:32 PM 35.0225 -111.7125 208° Southwest 445 512 21,300 -1,694 Descending Albuquerque Center
Sun 02:57:34 PM 34.8914 -111.7500 193° South 457 526 19,700 -1,548 Descending Albuquerque Center
Sun 02:58:36 PM 34.7731 -111.7839 193° South 444 511 18,100 -1,258 Descending Albuquerque Center
Sun 02:59:38 PM 34.6817 -111.8083 192° South 374 430 17,100 -1,065 Descending Albuquerque Center
Sun 03:00:40 PM 34.5856 -111.8364 194° South 357 411 15,900 -1,355 Descending Albuquerque Center
Sun 03:01:42 PM 34.4664 -111.8694 193° South 364 419 14,300 -1,403 Descending Albuquerque Center
Sun 03:02:44 PM 34.3664 -111.8969 193° South 368 423 13,000 -1,161 Descending Albuquerque Center
Sun 03:03:46 PM 34.2753 -111.9172 190° South 344 396 11,900 -968 Descending Albuquerque Center
Sun 03:04:48 PM 34.1867 -111.9214 182° South 323 372 11,000 -435 Descending Albuquerque Center
Sun 03:05:50 PM 34.0989 -111.9281 184° South 320 368 11,000 -532 Level Albuquerque Center
Sun 03:06:52 PM 34.0072 -111.9314 182° South 274 315 9,900 -1,258 Descending Albuquerque Center
Sun 03:07:54 PM 33.9358 -111.9378 184° South 263 303 8,400 -1,161 Descending Albuquerque Center
Sun 03:08:56 PM 33.8753 -111.9044 155° Southeast 245 282 7,500 -677 Descending Albuquerque Center
Sun 03:09:58 PM 33.8183 -111.8631 149° Southeast 242 278 7,000 -484 Descending Albuquerque Center
Sun 03:11:00 PM 33.7708 -111.8275 148° Southeast 200 230 6,500 -774 Descending Albuquerque Center
Sun 03:12:02 PM 33.7122 -111.8208 175° South 181 208 5,400 -1,161 Descending Albuquerque Center
Sun 03:13:04 PM 33.6792 -111.8453 212° Southwest 139 160 4,100 -1,355 Descending Albuquerque Center
Sun 03:14:06 PM 33.6553 -111.8722 223° Southwest 125 144 2,600 -1,248 Descending Albuquerque Center
Sun 03:15:09 PM 33.6325 -111.8994 225° Southwest 120 138 1,500 -1,048 Descending Albuquerque Center

Login

Don't have an account? Register now (free) for customized features, flight alerts, and more!